ADDS METAR Data INFO
IDs: Format: Raw Decoded Include TAF

Data at: 1133 UTC 29 May 2017

KHQZ 291115Z AUTO 36005KT 10SM CLR 19/18 A2996 RMK AO1 T01900182
KHQZ 291055Z AUTO 34005KT 10SM CLR 19/19 A2996 RMK AO1 T01920186
KHQZ 291035Z AUTO 00000KT 10SM CLR 20/19 A2997 RMK AO1 T01950189
KHQZ 291015Z AUTO 00000KT 10SM CLR 20/19 A2996 RMK AO1 T01950192
KHQZ 290955Z AUTO 01003KT 10SM CLR 20/20 A2996 RMK AO1 T01960195
KHQZ 290935Z AUTO 36005KT 7SM CLR 20/20 A2996 RMK AO1 T01990197
KHQZ 290915Z AUTO 34004KT 7SM CLR 20/20 A2997 RMK AO1 T02000198
KHQZ 290855Z AUTO 33004KT 5SM CLR 20/20 A2997 RMK AO1 T02000198
KHQZ 290835Z AUTO 35003KT 5SM CLR 20/20 A2997 RMK AO1 T02000199
KHQZ 290815Z AUTO 33003KT 7SM CLR 20/20 A2998 RMK AO1 T02000200
KHQZ 290755Z AUTO 00000KT 4SM CLR 20/20 A2999 RMK AO1 T02000200
KHQZ 290735Z AUTO 00000KT 4SM CLR 20/20 A3000 RMK AO1 T01980197
KHQZ 290715Z AUTO 00000KT 4SM CLR 20/20 A3002 RMK AO1 T01980198
KHQZ 290655Z AUTO 00000KT 7SM CLR 20/20 A3004 RMK AO1 T02040201
KHQZ 290635Z AUTO 00000KT 5SM CLR 21/21 A3003 RMK AO1 T02060205
KHQZ 290615Z AUTO 00000KT 7SM SCT040 SCT046 SCT050 21/21 A3004 RMK AO1 T02070205
KHQZ 290555Z AUTO 00000KT 7SM SCT046 SCT050 21/21 A3003 RMK AO1 T02120207 10238 20212 402690192
KHQZ 290535Z AUTO 00000KT 10SM CLR 21/21 A3003 RMK AO1 T02120207
KHQZ 290515Z AUTO 24003KT 10SM CLR 22/21 A3004 RMK AO1 T02150208
KHQZ 290455Z AUTO 21004KT 10SM CLR 22/21 A3004 RMK AO1 T02150209
KHQZ 290435Z AUTO 29003KT 10SM CLR 21/21 A3002 RMK AO1 T02140208
KHQZ 290415Z AUTO 00000KT 10SM CLR 22/21 A3002 RMK AO1 T02150208
KHQZ 290355Z AUTO 00000KT 10SM CLR 22/21 A3002 RMK AO1 T02150208
KHQZ 290335Z AUTO 00000KT 10SM CLR 22/21 A3001 RMK AO1 T02160209
KHQZ 290315Z AUTO 14006KT 10SM CLR 22/21 A2999 RMK AO1 T02170208
KHQZ 290255Z AUTO 00000KT 10SM CLR 22/21 A2999 RMK AO1 T02160210
KHQZ 290235Z AUTO 00000KT 10SM CLR 22/21 A2998 RMK AO1 T02160208
KHQZ 290215Z AUTO 00000KT 10SM CLR 22/21 A2997 RMK AO1 T02200207
KHQZ 290155Z AUTO 00000KT 10SM CLR 22/21 A2994 RMK AO1 T02210207
KHQZ 290050Z 01005KT 10SM BKN060 23/21 A2993
KHQZ 282350Z 03004KT 10SM SCT042 OVC048 24/21 A2991
KHQZ 282250Z 01005KT 10SM FEW015 OVC029 23/21 A2991
KHQZ 282150Z 34008KT 7SM BKN015 OVC021 23/21 A2996
KHQZ 282050Z 35005KT 10SM SCT010 OVC019 21/21 A2995 RMK TS DSNT E-SE
KHQZ 281950Z 35005KT 10SM OVC018 23/21 A2998
KHQZ 281850Z 36006KT 10SM OVC022 25/21 A2996
KHQZ 281750Z 01004KT 10SM OVC020 22/21 A2997
KHQZ 281650Z 04003KT 10SM SCT008 OVC024 21/21 A2998
KHQZ 281616Z 06006KT 5SM BR SCT006 BKN014 OVC024 21/21 A2996 RMK RB1305E1614
KHQZ 281550Z 07010G15KT 2 1/2SM -RA BKN006 OVC024 21/21 A2997 RMK RB1305
KHQZ 281450Z 02003KT 3SM -RA SCT004 BKN010 OVC024 21/21 A2996 RMK RB1305
KHQZ 281350Z 01003KT 3SM -RA SCT002 BKN013 OVC019 20/20 A2995 RMK RB1305
KHQZ 281305Z 01004KT 2SM -RA OVC008 19/19 A2993 RMK RB1305
KHQZ 281250Z 02003KT 10SM BKN008 OVC019 19/19 A2992
KHQZ 281150Z 10009G15KT 10SM OVC019 19/19 A2988
KHQZ 281135Z AUTO 10012G17KT 10SM BKN021 BKN028 19/19 A2987 RMK AO1 T01930193
KHQZ 281115Z AUTO 11011KT 10SM SCT012 BKN025 19/19 A2986 RMK AO1 T01930193
KHQZ 281055Z AUTO 12011KT 5SM BKN012 BKN020 OVC080 20/19 A2985 RMK AO1 P0018 T01950194
KHQZ 281035Z AUTO 06006KT 3SM SCT010 BKN022 OVC032 20/19 A2989 RMK AO1 P0017 T02000191
KHQZ 281015Z AUTO 01009KT 4SM OVC024 22/19 A2988 RMK AO1 P0004 T02240187
KHQZ 280955Z AUTO 06013G16KT 020V080 10SM OVC024 25/21 A2985 RMK AO1 T02520208
KHQZ 280935Z AUTO 09003KT 10SM OVC024 25/21 A2985 RMK AO1 T02540213
KHQZ 280915Z AUTO 00000KT 10SM OVC024 26/21 A2984 RMK AO1 T02550212
KHQZ 280855Z AUTO 01005G16KT 10SM BKN022 BKN027 25/21 A2982 RMK AO1 T02540213
KHQZ 280835Z AUTO 17006KT 10SM CLR 25/21 A2976 RMK AO1 T02490211
KHQZ 280815Z AUTO 17009G14KT 10SM CLR 25/21 A2975 RMK AO1 T02520210
KHQZ 280755Z AUTO 17011KT 10SM CLR 26/21 A2974 RMK AO1 T02550208
KHQZ 280735Z AUTO 18008KT 10SM CLR 26/21 A2976 RMK AO1 T02570208
KHQZ 280715Z AUTO 18009KT 10SM CLR 26/21 A2977 RMK AO1 T02600208
KHQZ 280655Z AUTO 18010G17KT 10SM CLR 26/21 A2978 RMK AO1 T02630211
KHQZ 280635Z AUTO 18012KT 10SM CLR 27/22 A2978 RMK AO1 T02650215
KHQZ 280615Z AUTO 17012KT 10SM CLR 27/22 A2978 RMK AO1 T02650217
KHQZ 280555Z AUTO 17009KT 10SM CLR 27/22 A2977 RMK AO1 T02700220 10302 20269 403050247
KHQZ 280535Z AUTO 17012KT 10SM CLR 27/22 A2977 RMK AO1 T02700222
KHQZ 280515Z AUTO 17014G17KT 10SM CLR 27/23 A2977 RMK AO1 T02710226
KHQZ 280455Z AUTO 18012KT 10SM CLR 27/23 A2978 RMK AO1 T02720230
KHQZ 280435Z AUTO 17011KT 7SM CLR 27/23 A2978 RMK AO1 T02720234
KHQZ 280415Z AUTO 16009KT 7SM CLR 27/24 A2978 RMK AO1 T02730237
KHQZ 280355Z AUTO 16009KT 7SM CLR 27/24 A2978 RMK AO1 T02740238
KHQZ 280335Z AUTO 15010G15KT 7SM CLR 28/24 A2977 RMK AO1 T02760238
KHQZ 280315Z AUTO 16009KT 7SM CLR 28/24 A2976 RMK AO1 T02770240
KHQZ 280255Z AUTO 15008KT 7SM CLR 28/24 A2976 RMK AO1 T02750240
KHQZ 280235Z AUTO 15007KT 7SM CLR 28/24 A2977 RMK AO1 T02760240
KHQZ 280215Z AUTO 15005KT 7SM SCT049 28/24 A2977 RMK AO1 T02800240
KHQZ 280155Z AUTO 16007KT 7SM BKN049 29/24 A2976 RMK AO1 T02870238
KHQZ 280050Z 15007KT 5SM BR BKN049 29/24 A2977
KHQZ 272350Z 16008KT 3SM BR OVC049 30/24 A2978


Page loaded:  11:33 UTC  |   04:33 AM Pacific  |   05:33 AM Mountain  |   06:33 AM Central  |   07:33 AM Eastern

 

ADVISORIES

FORECASTS

FORECASTS

OBSERVATIONS

USER TOOLS

ABOUT US